Abingdon, United Kingdom
Current Conditions -  °F | °C
As of 8:50 AM on Sunday 21 Dec 2014 (Local Time) from EGUB Reporting Station
Broken Clouds Broken Clouds  
Wind Chill: 38°   Ceiling: 1200
Heat Index: 45°   Visibility: 6mi
Dew Point: 43°   Wind: 14mph
Humidity: 93%   Direction: 210°SSW
Pressure: 30.33"   Gusts: NA
Location:  51.67°N, 1.29°W
Report Text: EGUB 210850Z AUTO 21012KT 9999 // BKN012/// SCT024/// 07/06 Q1027
Loading
Personal Weather Stations






























Interactive Weather Map New forecast layout! Learn more

10-Day Weather Forecast

Advertisements
Track Severe Weather on mobile